sensor_id;sensor_type;location;lat;lon;timestamp;pressure;altitude;pressure_sealevel;temperature;humidity
52651;BME280;38537;47.226;39.702;2023-04-01T00:01:03;100463.09;;;10.83;48.56
52651;BME280;38537;47.226;39.702;2023-04-01T00:03:32;100461.47;;;10.82;48.68
52651;BME280;38537;47.226;39.702;2023-04-01T00:06:01;100468.91;;;10.86;48.81
52651;BME280;38537;47.226;39.702;2023-04-01T00:08:29;100474.75;;;11.04;48.50
52651;BME280;38537;47.226;39.702;2023-04-01T00:10:56;100472.88;;;11.13;48.08
52651;BME280;38537;47.226;39.702;2023-04-01T00:13:25;100479.09;;;11.10;48.36
52651;BME280;38537;47.226;39.702;2023-04-01T00:15:54;100480.75;;;11.11;47.96
52651;BME280;38537;47.226;39.702;2023-04-01T00:18:23;100457.78;;;11.14;47.81
52651;BME280;38537;47.226;39.702;2023-04-01T00:20:51;100478.91;;;11.47;47.67
52651;BME280;38537;47.226;39.702;2023-04-01T00:23:19;100465.97;;;11.38;47.44
52651;BME280;38537;47.226;39.702;2023-04-01T00:25:48;100472.38;;;11.38;47.97
52651;BME280;38537;47.226;39.702;2023-04-01T00:28:18;100473.72;;;11.54;47.32
52651;BME280;38537;47.226;39.702;2023-04-01T00:30:46;100472.16;;;11.34;47.71
52651;BME280;38537;47.226;39.702;2023-04-01T00:33:14;100452.69;;;11.29;47.58
52651;BME280;38537;47.226;39.702;2023-04-01T00:35:43;100486.47;;;11.19;47.99
52651;BME280;38537;47.226;39.702;2023-04-01T00:38:11;100479.47;;;10.89;48.11
52651;BME280;38537;47.226;39.702;2023-04-01T00:40:44;100460.00;;;10.84;48.27
52651;BME280;38537;47.226;39.702;2023-04-01T00:43:17;100497.50;;;11.11;48.60
52651;BME280;38537;47.226;39.702;2023-04-01T00:45:48;100485.44;;;10.69;48.31
52651;BME280;38537;47.226;39.702;2023-04-01T00:48:36;100477.19;;;10.45;49.40
52651;BME280;38537;47.226;39.702;2023-04-01T00:51:16;100490.91;;;10.42;49.60
52651;BME280;38537;47.226;39.702;2023-04-01T00:53:47;100492.97;;;10.17;49.71
52651;BME280;38537;47.226;39.702;2023-04-01T00:56:18;100499.09;;;10.38;49.95
52651;BME280;38537;47.226;39.702;2023-04-01T00:58:56;100499.16;;;10.33;49.86
52651;BME280;38537;47.226;39.702;2023-04-01T01:01:26;100499.16;;;10.14;50.15
52651;BME280;38537;47.226;39.702;2023-04-01T01:03:54;100489.03;;;9.81;50.45
52651;BME280;38537;47.226;39.702;2023-04-01T01:15:31;100493.06;;;10.12;50.03
52651;BME280;38537;47.226;39.702;2023-04-01T01:20:57;100505.94;;;10.46;49.58
52651;BME280;38537;47.226;39.702;2023-04-01T01:34:49;100497.16;;;9.96;50.61
52651;BME280;38537;47.226;39.702;2023-04-01T01:37:21;100472.31;;;9.81;50.48
52651;BME280;38537;47.226;39.702;2023-04-01T01:39:54;100503.75;;;10.05;50.22
52651;BME280;38537;47.226;39.702;2023-04-01T01:42:24;100492.59;;;10.05;50.34
52651;BME280;38537;47.226;39.702;2023-04-01T01:44:54;100503.47;;;10.25;49.73
52651;BME280;38537;47.226;39.702;2023-04-01T01:47:23;100509.88;;;10.26;50.02
52651;BME280;38537;47.226;39.702;2023-04-01T01:49:53;100506.00;;;10.41;49.41
52651;BME280;38537;47.226;39.702;2023-04-01T01:52:23;100492.16;;;10.36;49.57
52651;BME280;38537;47.226;39.702;2023-04-01T01:54:55;100490.03;;;10.27;49.72
52651;BME280;38537;47.226;39.702;2023-04-01T01:57:29;100505.41;;;10.44;49.34
52651;BME280;38537;47.226;39.702;2023-04-01T02:00:09;100510.53;;;10.55;49.82
52651;BME280;38537;47.226;39.702;2023-04-01T02:02:45;100511.47;;;10.64;49.53
52651;BME280;38537;47.226;39.702;2023-04-01T02:05:19;100504.06;;;10.74;49.11
52651;BME280;38537;47.226;39.702;2023-04-01T02:07:49;100513.06;;;11.03;49.22
52651;BME280;38537;47.226;39.702;2023-04-01T02:10:22;100510.13;;;10.94;48.57
52651;BME280;38537;47.226;39.702;2023-04-01T02:12:53;100523.34;;;10.89;48.23
52651;BME280;38537;47.226;39.702;2023-04-01T02:15:27;100521.78;;;10.83;48.59
52651;BME280;38537;47.226;39.702;2023-04-01T02:17:58;100513.50;;;10.78;48.49
52651;BME280;38537;47.226;39.702;2023-04-01T02:20:27;100519.34;;;10.62;48.66
52651;BME280;38537;47.226;39.702;2023-04-01T02:22:57;100516.06;;;10.74;48.47
52651;BME280;38537;47.226;39.702;2023-04-01T02:25:29;100514.63;;;10.77;48.57
52651;BME280;38537;47.226;39.702;2023-04-01T02:27:58;100524.53;;;10.69;48.72
52651;BME280;38537;47.226;39.702;2023-04-01T02:30:29;100525.31;;;10.56;48.69
52651;BME280;38537;47.226;39.702;2023-04-01T02:32:57;100527.84;;;10.71;48.36
52651;BME280;38537;47.226;39.702;2023-04-01T02:35:26;100518.66;;;10.84;48.70
52651;BME280;38537;47.226;39.702;2023-04-01T02:37:54;100522.28;;;10.85;48.67
52651;BME280;38537;47.226;39.702;2023-04-01T02:40:22;100515.72;;;10.62;48.26
52651;BME280;38537;47.226;39.702;2023-04-01T02:42:49;100527.13;;;10.47;48.72
52651;BME280;38537;47.226;39.702;2023-04-01T02:45:17;100540.25;;;10.46;48.77
52651;BME280;38537;47.226;39.702;2023-04-01T02:47:45;100525.19;;;10.28;49.29
52651;BME280;38537;47.226;39.702;2023-04-01T02:50:12;100541.38;;;10.08;49.52
52651;BME280;38537;47.226;39.702;2023-04-01T02:52:39;100523.66;;;10.17;49.32
52651;BME280;38537;47.226;39.702;2023-04-01T02:55:07;100539.00;;;10.20;49.42
52651;BME280;38537;47.226;39.702;2023-04-01T02:57:34;100525.44;;;10.32;49.51
52651;BME280;38537;47.226;39.702;2023-04-01T03:00:02;100521.56;;;10.47;49.28
52651;BME280;38537;47.226;39.702;2023-04-01T03:02:30;100535.47;;;10.65;48.81
52651;BME280;38537;47.226;39.702;2023-04-01T03:04:57;100539.34;;;10.51;48.79
52651;BME280;38537;47.226;39.702;2023-04-01T03:07:24;100514.75;;;9.96;49.09
52651;BME280;38537;47.226;39.702;2023-04-01T03:09:52;100535.09;;;9.97;49.51
52651;BME280;38537;47.226;39.702;2023-04-01T03:12:19;100524.97;;;9.63;50.18
52651;BME280;38537;47.226;39.702;2023-04-01T03:14:49;100544.78;;;9.38;50.53
52651;BME280;38537;47.226;39.702;2023-04-01T03:17:17;100528.88;;;9.15;51.04
52651;BME280;38537;47.226;39.702;2023-04-01T03:19:44;100519.09;;;8.88;51.42
52651;BME280;38537;47.226;39.702;2023-04-01T03:22:12;100543.25;;;8.98;51.46
52651;BME280;38537;47.226;39.702;2023-04-01T03:24:39;100537.84;;;8.83;51.94
52651;BME280;38537;47.226;39.702;2023-04-01T03:27:07;100517.59;;;8.43;52.08
52651;BME280;38537;47.226;39.702;2023-04-01T03:29:34;100492.44;;;8.14;52.95
52651;BME280;38537;47.226;39.702;2023-04-01T03:32:01;100524.75;;;8.49;52.95
52651;BME280;38537;47.226;39.702;2023-04-01T03:34:29;100540.25;;;8.89;52.67
52651;BME280;38537;47.226;39.702;2023-04-01T03:36:57;100534.09;;;9.21;51.63
52651;BME280;38537;47.226;39.702;2023-04-01T03:39:24;100534.44;;;9.15;51.67
52651;BME280;38537;47.226;39.702;2023-04-01T03:41:52;100555.94;;;9.62;51.45
52651;BME280;38537;47.226;39.702;2023-04-01T03:44:19;100554.03;;;10.00;50.78
52651;BME280;38537;47.226;39.702;2023-04-01T03:46:50;100521.09;;;10.02;50.32
52651;BME280;38537;47.226;39.702;2023-04-01T03:49:17;100546.91;;;10.32;49.64
52651;BME280;38537;47.226;39.702;2023-04-01T03:51:44;100534.22;;;10.20;49.65
52651;BME280;38537;47.226;39.702;2023-04-01T03:54:12;100546.53;;;10.57;49.49
52651;BME280;38537;47.226;39.702;2023-04-01T03:56:40;100549.66;;;10.69;48.99
52651;BME280;38537;47.226;39.702;2023-04-01T03:59:08;100556.66;;;10.85;48.53
52651;BME280;38537;47.226;39.702;2023-04-01T04:01:35;100557.00;;;10.97;48.89
52651;BME280;38537;47.226;39.702;2023-04-01T04:04:02;100559.28;;;10.95;48.13
52651;BME280;38537;47.226;39.702;2023-04-01T04:06:30;100529.75;;;10.89;48.83
52651;BME280;38537;47.226;39.702;2023-04-01T04:08:57;100541.47;;;10.91;48.29
52651;BME280;38537;47.226;39.702;2023-04-01T04:11:26;100540.56;;;10.96;48.17
52651;BME280;38537;47.226;39.702;2023-04-01T04:13:53;100563.47;;;10.79;48.40
52651;BME280;38537;47.226;39.702;2023-04-01T04:16:22;100543.31;;;10.82;48.48
52651;BME280;38537;47.226;39.702;2023-04-01T04:18:56;100557.31;;;10.96;48.63
52651;BME280;38537;47.226;39.702;2023-04-01T04:21:23;100546.34;;;10.67;48.39
52651;BME280;38537;47.226;39.702;2023-04-01T04:23:50;100570.75;;;10.94;48.59
52651;BME280;38537;47.226;39.702;2023-04-01T04:26:19;100570.63;;;11.18;48.21
52651;BME280;38537;47.226;39.702;2023-04-01T04:28:54;100572.88;;;11.16;47.80
52651;BME280;38537;47.226;39.702;2023-04-01T04:31:23;100567.69;;;11.09;48.48
52651;BME280;38537;47.226;39.702;2023-04-01T04:33:54;100576.03;;;11.42;47.76
52651;BME280;38537;47.226;39.702;2023-04-01T04:36:22;100579.16;;;11.54;47.26
52651;BME280;38537;47.226;39.702;2023-04-01T04:38:51;100575.53;;;11.53;47.48
52651;BME280;38537;47.226;39.702;2023-04-01T04:41:19;100546.00;;;11.20;47.10
52651;BME280;38537;47.226;39.702;2023-04-01T04:43:55;100558.91;;;11.16;47.81
52651;BME280;38537;47.226;39.702;2023-04-01T04:46:24;100574.09;;;11.10;47.51
52651;BME280;38537;47.226;39.702;2023-04-01T04:49:05;100585.53;;;11.27;47.68
52651;BME280;38537;47.226;39.702;2023-04-01T04:51:33;100567.41;;;10.78;48.12
52651;BME280;38537;47.226;39.702;2023-04-01T04:54:04;100588.56;;;10.98;48.38
52651;BME280;38537;47.226;39.702;2023-04-01T04:56:44;100589.00;;;11.05;48.09
52651;BME280;38537;47.226;39.702;2023-04-01T04:59:11;100586.69;;;10.93;48.52
52651;BME280;38537;47.226;39.702;2023-04-01T05:01:52;100593.88;;;10.99;48.59
52651;BME280;38537;47.226;39.702;2023-04-01T05:04:21;100575.25;;;11.09;48.30
52651;BME280;38537;47.226;39.702;2023-04-01T05:06:48;100591.00;;;11.18;48.36
52651;BME280;38537;47.226;39.702;2023-04-01T05:09:16;100564.31;;;10.80;48.27
52651;BME280;38537;47.226;39.702;2023-04-01T05:11:46;100591.16;;;10.94;48.74
52651;BME280;38537;47.226;39.702;2023-04-01T05:14:14;100589.16;;;10.81;48.59
52651;BME280;38537;47.226;39.702;2023-04-01T05:16:48;100570.81;;;10.56;48.63
52651;BME280;38537;47.226;39.702;2023-04-01T05:19:20;100594.94;;;10.66;48.87
52651;BME280;38537;47.226;39.702;2023-04-01T05:21:49;100593.72;;;10.91;48.88
52651;BME280;38537;47.226;39.702;2023-04-01T05:24:16;100579.13;;;10.94;48.50
52651;BME280;38537;47.226;39.702;2023-04-01T05:26:44;100598.94;;;11.44;48.46
52651;BME280;38537;47.226;39.702;2023-04-01T05:29:11;100590.16;;;11.64;48.50
52651;BME280;38537;47.226;39.702;2023-04-01T05:31:39;100605.31;;;11.77;47.85
52651;BME280;38537;47.226;39.702;2023-04-01T05:34:06;100579.66;;;11.69;48.07
52651;BME280;38537;47.226;39.702;2023-04-01T05:36:34;100608.28;;;11.66;47.38
52651;BME280;38537;47.226;39.702;2023-04-01T05:39:02;100585.97;;;11.48;47.98
52651;BME280;38537;47.226;39.702;2023-04-01T05:41:30;100589.59;;;11.48;48.11
52651;BME280;38537;47.226;39.702;2023-04-01T05:43:58;100574.25;;;11.32;48.06
52651;BME280;38537;47.226;39.702;2023-04-01T05:46:52;100589.41;;;11.58;48.34
52651;BME280;38537;47.226;39.702;2023-04-01T05:49:21;100590.69;;;11.80;48.26
52651;BME280;38537;47.226;39.702;2023-04-01T05:51:49;100567.47;;;11.79;47.71
52651;BME280;38537;47.226;39.702;2023-04-01T05:54:18;100588.81;;;12.02;47.83
52651;BME280;38537;47.226;39.702;2023-04-01T05:56:46;100556.69;;;12.00;47.95
52651;BME280;38537;47.226;39.702;2023-04-01T05:59:14;100568.66;;;12.28;47.13
52651;BME280;38537;47.226;39.702;2023-04-01T06:01:42;100572.97;;;12.48;47.18
52651;BME280;38537;47.226;39.702;2023-04-01T06:04:17;100580.97;;;12.77;46.96
52651;BME280;38537;47.226;39.702;2023-04-01T06:06:45;100575.16;;;12.73;46.78
52651;BME280;38537;47.226;39.702;2023-04-01T06:17:26;100575.06;;;13.09;45.97
52651;BME280;38537;47.226;39.702;2023-04-01T06:20:08;100567.25;;;12.97;45.56
52651;BME280;38537;47.226;39.702;2023-04-01T06:25:19;100563.75;;;13.14;45.82
52651;BME280;38537;47.226;39.702;2023-04-01T06:31:36;100578.84;;;13.27;45.99
52651;BME280;38537;47.226;39.702;2023-04-01T06:39:40;100577.06;;;13.62;45.71
52651;BME280;38537;47.226;39.702;2023-04-01T06:53:55;100563.59;;;13.90;45.38
52651;BME280;38537;47.226;39.702;2023-04-01T06:57:38;100564.03;;;14.23;44.62
52651;BME280;38537;47.226;39.702;2023-04-01T07:00:25;100548.31;;;14.22;43.67
52651;BME280;38537;47.226;39.702;2023-04-01T07:03:02;100558.78;;;14.47;43.72
52651;BME280;38537;47.226;39.702;2023-04-01T07:05:34;100559.78;;;14.60;43.41
52651;BME280;38537;47.226;39.702;2023-04-01T07:08:06;100542.09;;;14.68;43.08
52651;BME280;38537;47.226;39.702;2023-04-01T07:13:29;100544.56;;;14.87;42.44
52651;BME280;38537;47.226;39.702;2023-04-01T07:19:05;100554.47;;;14.93;41.65
52651;BME280;38537;47.226;39.702;2023-04-01T07:21:55;100541.72;;;15.04;42.02
52651;BME280;38537;47.226;39.702;2023-04-01T07:24:41;100538.06;;;14.95;42.10
52651;BME280;38537;47.226;39.702;2023-04-01T07:27:10;100543.50;;;15.17;42.97
52651;BME280;38537;47.226;39.702;2023-04-01T07:29:39;100546.00;;;15.10;42.47
52651;BME280;38537;47.226;39.702;2023-04-01T07:35:07;100543.81;;;15.16;42.05
52651;BME280;38537;47.226;39.702;2023-04-01T07:37:45;100519.22;;;15.04;40.73
52651;BME280;38537;47.226;39.702;2023-04-01T07:40:27;100531.94;;;15.01;41.16
52651;BME280;38537;47.226;39.702;2023-04-01T07:48:33;100532.66;;;14.81;42.31
52651;BME280;38537;47.226;39.702;2023-04-01T07:51:15;100540.75;;;14.74;42.32
52651;BME280;38537;47.226;39.702;2023-04-01T07:56:57;100541.53;;;15.00;41.82
52651;BME280;38537;47.226;39.702;2023-04-01T08:02:48;100535.13;;;15.47;41.15
52651;BME280;38537;47.226;39.702;2023-04-01T08:05:29;100541.88;;;15.63;39.75
52651;BME280;38537;47.226;39.702;2023-04-01T08:19:56;100523.53;;;16.16;40.66
52651;BME280;38537;47.226;39.702;2023-04-01T08:22:37;100521.25;;;16.30;40.73
52651;BME280;38537;47.226;39.702;2023-04-01T08:25:25;100505.09;;;15.97;37.93
52651;BME280;38537;47.226;39.702;2023-04-01T08:28:03;100516.38;;;15.97;38.61
52651;BME280;38537;47.226;39.702;2023-04-01T08:30:46;100504.38;;;15.80;37.85
52651;BME280;38537;47.226;39.702;2023-04-01T08:33:30;100490.16;;;15.76;38.11
52651;BME280;38537;47.226;39.702;2023-04-01T08:36:28;100508.63;;;15.86;38.29
52651;BME280;38537;47.226;39.702;2023-04-01T08:39:29;100479.13;;;15.62;38.49
52651;BME280;38537;47.226;39.702;2023-04-01T09:22:39;100499.50;;;16.93;36.68
52651;BME280;38537;47.226;39.702;2023-04-01T09:28:07;100505.94;;;16.81;38.04
52651;BME280;38537;47.226;39.702;2023-04-01T09:43:25;100501.13;;;17.39;37.14
52651;BME280;38537;47.226;39.702;2023-04-01T10:05:22;100488.00;;;17.79;36.36
52651;BME280;38537;47.226;39.702;2023-04-01T10:11:16;100501.44;;;17.70;35.81
52651;BME280;38537;47.226;39.702;2023-04-01T10:24:40;100499.78;;;17.69;34.87
52651;BME280;38537;47.226;39.702;2023-04-01T11:21:59;100394.41;;;18.33;32.21
52651;BME280;38537;47.226;39.702;2023-04-01T11:27:51;100467.56;;;18.91;33.70
52651;BME280;38537;47.226;39.702;2023-04-01T11:33:31;100432.72;;;18.46;32.84
52651;BME280;38537;47.226;39.702;2023-04-01T11:50:26;100449.28;;;18.88;33.08
52651;BME280;38537;47.226;39.702;2023-04-01T11:53:19;100424.16;;;18.71;32.75
52651;BME280;38537;47.226;39.702;2023-04-01T11:56:11;100420.31;;;18.63;33.49
52651;BME280;38537;47.226;39.702;2023-04-01T11:58:52;100435.34;;;18.95;33.55
52651;BME280;38537;47.226;39.702;2023-04-01T12:01:36;100442.97;;;19.23;33.09
52651;BME280;38537;47.226;39.702;2023-04-01T12:04:18;100448.25;;;19.24;32.97
52651;BME280;38537;47.226;39.702;2023-04-01T12:07:06;100436.75;;;19.17;32.31
52651;BME280;38537;47.226;39.702;2023-04-01T12:12:42;100426.97;;;19.46;32.58
52651;BME280;38537;47.226;39.702;2023-04-01T12:29:28;100412.16;;;19.68;31.04
52651;BME280;38537;47.226;39.702;2023-04-01T12:33:10;100408.22;;;19.73;31.68
52651;BME280;38537;47.226;39.702;2023-04-01T12:42:48;100400.88;;;19.88;30.07
52651;BME280;38537;47.226;39.702;2023-04-01T13:02:07;100390.38;;;18.62;31.66
52651;BME280;38537;47.226;39.702;2023-04-01T13:07:43;100388.25;;;19.18;31.26
52651;BME280;38537;47.226;39.702;2023-04-01T13:10:25;100392.06;;;19.42;31.08
52651;BME280;38537;47.226;39.702;2023-04-01T13:13:24;100367.88;;;19.44;31.01
52651;BME280;38537;47.226;39.702;2023-04-01T13:19:06;100383.03;;;18.73;29.14
52651;BME280;38537;47.226;39.702;2023-04-01T13:24:28;100382.09;;;18.69;30.08
52651;BME280;38537;47.226;39.702;2023-04-01T13:27:12;100383.03;;;18.89;29.57
52651;BME280;38537;47.226;39.702;2023-04-01T13:29:50;100362.84;;;19.06;30.79
52651;BME280;38537;47.226;39.702;2023-04-01T13:32:36;100353.28;;;19.27;30.58
52651;BME280;38537;47.226;39.702;2023-04-01T13:40:51;100348.34;;;19.74;29.59
52651;BME280;38537;47.226;39.702;2023-04-01T13:43:39;100361.69;;;19.93;29.01
52651;BME280;38537;47.226;39.702;2023-04-01T14:23:03;100368.16;;;18.76;29.67
52651;BME280;38537;47.226;39.702;2023-04-01T14:39:53;100349.06;;;18.73;29.16
52651;BME280;38537;47.226;39.702;2023-04-01T14:50:46;100364.56;;;19.42;28.79
52651;BME280;38537;47.226;39.702;2023-04-01T14:56:00;100367.53;;;18.99;28.21
52651;BME280;38537;47.226;39.702;2023-04-01T14:58:47;100376.47;;;19.16;29.22
52651;BME280;38537;47.226;39.702;2023-04-01T15:01:30;100354.09;;;19.11;28.31
52651;BME280;38537;47.226;39.702;2023-04-01T15:07:21;100376.38;;;19.13;29.07
52651;BME280;38537;47.226;39.702;2023-04-01T15:19:03;100371.16;;;19.15;29.59
52651;BME280;38537;47.226;39.702;2023-04-01T15:22:05;100369.59;;;18.86;29.00
52651;BME280;38537;47.226;39.702;2023-04-01T15:24:44;100372.97;;;18.32;29.29
52651;BME280;38537;47.226;39.702;2023-04-01T15:27:31;100373.09;;;18.24;29.66
52651;BME280;38537;47.226;39.702;2023-04-01T15:30:25;100352.50;;;17.95;29.09
52651;BME280;38537;47.226;39.702;2023-04-01T15:41:16;100349.28;;;17.69;29.69
52651;BME280;38537;47.226;39.702;2023-04-01T15:43:49;100364.91;;;17.78;30.97
52651;BME280;38537;47.226;39.702;2023-04-01T15:52:02;100378.09;;;17.62;31.09
52651;BME280;38537;47.226;39.702;2023-04-01T16:00:25;100383.75;;;17.13;31.51
52651;BME280;38537;47.226;39.702;2023-04-01T16:03:13;100393.16;;;17.18;31.43
52651;BME280;38537;47.226;39.702;2023-04-01T16:13:38;100388.47;;;15.98;31.82
52651;BME280;38537;47.226;39.702;2023-04-01T16:21:59;100383.41;;;15.33;32.97
52651;BME280;38537;47.226;39.702;2023-04-01T16:24:48;100385.75;;;15.31;32.69
52651;BME280;38537;47.226;39.702;2023-04-01T16:27:25;100391.00;;;15.03;33.17
52651;BME280;38537;47.226;39.702;2023-04-01T16:32:38;100383.22;;;14.70;33.70
52651;BME280;38537;47.226;39.702;2023-04-01T16:35:23;100392.16;;;14.64;33.77
52651;BME280;38537;47.226;39.702;2023-04-01T16:43:25;100378.50;;;14.19;34.08
52651;BME280;38537;47.226;39.702;2023-04-01T16:46:50;100391.38;;;14.20;34.51
52651;BME280;38537;47.226;39.702;2023-04-01T16:54:58;100389.41;;;13.95;34.53
52651;BME280;38537;47.226;39.702;2023-04-01T16:57:36;100390.22;;;13.78;35.01
52651;BME280;38537;47.226;39.702;2023-04-01T17:03:08;100387.09;;;13.80;34.85
52651;BME280;38537;47.226;39.702;2023-04-01T17:11:22;100389.88;;;13.71;35.30
52651;BME280;38537;47.226;39.702;2023-04-01T17:17:19;100392.69;;;13.62;36.00
52651;BME280;38537;47.226;39.702;2023-04-01T17:22:48;100395.00;;;13.60;36.11
52651;BME280;38537;47.226;39.702;2023-04-01T17:37:28;100388.03;;;13.49;35.91
52651;BME280;38537;47.226;39.702;2023-04-01T17:40:15;100383.06;;;13.46;35.76
52651;BME280;38537;47.226;39.702;2023-04-01T17:43:06;100363.59;;;13.32;36.02
52651;BME280;38537;47.226;39.702;2023-04-01T17:45:54;100344.25;;;13.22;36.22
52651;BME280;38537;47.226;39.702;2023-04-01T17:48:44;100388.03;;;13.49;36.32
52651;BME280;38537;47.226;39.702;2023-04-01T18:00:14;100387.84;;;13.37;35.91
52651;BME280;38537;47.226;39.702;2023-04-01T18:03:16;100389.84;;;13.45;35.98
52651;BME280;38537;47.226;39.702;2023-04-01T18:06:14;100365.59;;;13.49;36.22
52651;BME280;38537;47.226;39.702;2023-04-01T18:09:15;100374.72;;;13.63;35.81
52651;BME280;38537;47.226;39.702;2023-04-01T18:17:31;100376.69;;;13.71;35.74
52651;BME280;38537;47.226;39.702;2023-04-01T18:22:48;100376.84;;;13.66;35.84
52651;BME280;38537;47.226;39.702;2023-04-01T18:31:04;100354.84;;;13.34;35.69
52651;BME280;38537;47.226;39.702;2023-04-01T18:39:02;100367.38;;;13.28;36.05
52651;BME280;38537;47.226;39.702;2023-04-01T18:44:41;100377.06;;;13.22;36.51
52651;BME280;38537;47.226;39.702;2023-04-01T18:50:34;100371.09;;;13.15;36.54
52651;BME280;38537;47.226;39.702;2023-04-01T18:53:35;100375.66;;;13.02;36.88
52651;BME280;38537;47.226;39.702;2023-04-01T18:56:11;100362.56;;;12.80;36.72
52651;BME280;38537;47.226;39.702;2023-04-01T18:58:52;100351.66;;;12.79;37.09
52651;BME280;38537;47.226;39.702;2023-04-01T19:04:30;100372.28;;;12.83;36.96
52651;BME280;38537;47.226;39.702;2023-04-01T19:07:48;100326.19;;;12.49;37.18
52651;BME280;38537;47.226;39.702;2023-04-01T19:09:51;100343.19;;;12.61;36.92
52651;BME280;38537;47.226;39.702;2023-04-01T19:38:10;100361.84;;;13.05;37.26
52651;BME280;38537;47.226;39.702;2023-04-01T19:46:18;100354.28;;;13.15;37.20
52651;BME280;38537;47.226;39.702;2023-04-01T19:55:13;100355.66;;;13.26;37.12
52651;BME280;38537;47.226;39.702;2023-04-01T19:58:25;100353.69;;;13.35;36.60
52651;BME280;38537;47.226;39.702;2023-04-01T20:00:57;100347.56;;;13.24;36.38
52651;BME280;38537;47.226;39.702;2023-04-01T20:03:50;100344.09;;;13.19;36.14
52651;BME280;38537;47.226;39.702;2023-04-01T20:06:37;100329.91;;;13.24;36.62
52651;BME280;38537;47.226;39.702;2023-04-01T20:09:26;100344.97;;;13.36;36.88
52651;BME280;38537;47.226;39.702;2023-04-01T20:14:49;100332.38;;;13.17;36.12
52651;BME280;38537;47.226;39.702;2023-04-01T20:17:24;100337.03;;;13.30;36.02
52651;BME280;38537;47.226;39.702;2023-04-01T20:20:00;100347.78;;;13.36;36.55
52651;BME280;38537;47.226;39.702;2023-04-01T20:25:24;100344.94;;;13.19;36.19
52651;BME280;38537;47.226;39.702;2023-04-01T20:28:02;100344.09;;;13.19;36.22
52651;BME280;38537;47.226;39.702;2023-04-01T20:39:04;100344.13;;;13.45;37.49
52651;BME280;38537;47.226;39.702;2023-04-01T20:44:20;100325.25;;;13.11;37.59
52651;BME280;38537;47.226;39.702;2023-04-01T20:55:03;100336.75;;;13.00;38.57
52651;BME280;38537;47.226;39.702;2023-04-01T20:58:07;100335.91;;;13.00;38.73
52651;BME280;38537;47.226;39.702;2023-04-01T21:03:55;100341.84;;;12.90;38.98
52651;BME280;38537;47.226;39.702;2023-04-01T21:07:17;100339.34;;;12.88;39.21
52651;BME280;38537;47.226;39.702;2023-04-01T21:12:30;100339.16;;;12.76;39.08
52651;BME280;38537;47.226;39.702;2023-04-01T21:32:24;100323.13;;;12.06;40.25
52651;BME280;38537;47.226;39.702;2023-04-01T21:44:03;100339.09;;;12.06;40.32
52651;BME280;38537;47.226;39.702;2023-04-01T22:03:50;100329.25;;;11.72;41.10
52651;BME280;38537;47.226;39.702;2023-04-01T22:06:56;100344.50;;;11.80;41.20
52651;BME280;38537;47.226;39.702;2023-04-01T22:12:46;100336.19;;;11.75;41.40
52651;BME280;38537;47.226;39.702;2023-04-01T22:21:16;100330.91;;;11.73;41.44
52651;BME280;38537;47.226;39.702;2023-04-01T22:26:59;100318.22;;;11.67;41.44
52651;BME280;38537;47.226;39.702;2023-04-01T22:29:51;100323.03;;;11.89;41.39
52651;BME280;38537;47.226;39.702;2023-04-01T22:32:49;100332.16;;;11.81;40.88
52651;BME280;38537;47.226;39.702;2023-04-01T22:38:48;100311.75;;;12.02;40.69
52651;BME280;38537;47.226;39.702;2023-04-01T22:41:29;100313.22;;;12.00;40.66
52651;BME280;38537;47.226;39.702;2023-04-01T22:44:00;100309.50;;;11.91;40.78
52651;BME280;38537;47.226;39.702;2023-04-01T22:46:52;100311.00;;;11.88;40.76
52651;BME280;38537;47.226;39.702;2023-04-01T22:54:45;100299.31;;;11.73;40.37
52651;BME280;38537;47.226;39.702;2023-04-01T23:00:45;100283.59;;;11.77;40.95
52651;BME280;38537;47.226;39.702;2023-04-01T23:03:34;100289.69;;;11.79;40.52
52651;BME280;38537;47.226;39.702;2023-04-01T23:06:04;100291.56;;;11.69;40.65
52651;BME280;38537;47.226;39.702;2023-04-01T23:17:00;100294.66;;;11.82;40.70
52651;BME280;38537;47.226;39.702;2023-04-01T23:22:44;100290.53;;;11.79;40.52
52651;BME280;38537;47.226;39.702;2023-04-01T23:33:30;100284.59;;;11.81;40.35
52651;BME280;38537;47.226;39.702;2023-04-01T23:36:00;100283.03;;;11.75;40.52
52651;BME280;38537;47.226;39.702;2023-04-01T23:38:37;100274.66;;;11.75;40.72
52651;BME280;38537;47.226;39.702;2023-04-01T23:41:06;100274.13;;;11.73;40.40
52651;BME280;38537;47.226;39.702;2023-04-01T23:43:39;100278.00;;;11.77;40.50
52651;BME280;38537;47.226;39.702;2023-04-01T23:46:08;100247.28;;;11.63;40.60
52651;BME280;38537;47.226;39.702;2023-04-01T23:48:38;100274.66;;;11.97;40.75
52651;BME280;38537;47.226;39.702;2023-04-01T23:51:27;100267.16;;;12.06;40.67
52651;BME280;38537;47.226;39.702;2023-04-01T23:54:10;100253.09;;;11.75;40.08
52651;BME280;38537;47.226;39.702;2023-04-01T23:56:44;100258.41;;;11.77;40.49
52651;BME280;38537;47.226;39.702;2023-04-01T23:59:18;100246.59;;;11.80;40.72
